createdAt,value
2019-04-06T00:00:09.665Z,54.31
2019-04-06T00:02:39.976Z,54.15
2019-04-06T00:05:09.671Z,53.87
2019-04-06T00:07:38.655Z,54.88
2019-04-06T00:10:07.740Z,55.52
2019-04-06T00:12:36.536Z,55.56
2019-04-06T00:15:07.176Z,57.81
2019-04-06T00:17:35.938Z,58.23
2019-04-06T00:20:07.160Z,58.32
2019-04-06T00:22:36.095Z,59.89
2019-04-06T00:25:06.597Z,59.69
2019-04-06T00:27:35.417Z,59.94
2019-04-06T00:30:05.777Z,59.46
2019-04-06T00:32:36.096Z,59.07
2019-04-06T00:35:06.055Z,57.81
2019-04-06T00:37:34.896Z,57.80
2019-04-06T00:40:04.700Z,58.19
2019-04-06T00:42:33.496Z,57.96
2019-04-06T00:45:02.349Z,57.54
2019-04-06T00:47:31.236Z,58.25
2019-04-06T00:50:00.101Z,59.55
2019-04-06T00:52:28.935Z,59.42
2019-04-06T00:54:57.737Z,59.31
2019-04-06T00:57:27.502Z,59.93
2019-04-06T00:59:56.336Z,60.55
2019-04-06T01:02:25.096Z,60.14
2019-04-06T01:04:53.896Z,59.18
2019-04-06T01:07:23.248Z,59.54
2019-04-06T01:09:52.298Z,59.31
2019-04-06T01:12:21.097Z,59.26
2019-04-06T01:14:49.935Z,58.49
2019-04-06T01:17:18.705Z,58.18
2019-04-06T01:19:47.495Z,57.97
2019-04-06T01:22:16.337Z,58.22
2019-04-06T01:24:45.099Z,57.57
2019-04-06T01:27:13.858Z,58.29
2019-04-06T01:29:42.695Z,59.07
2019-04-06T01:32:11.552Z,60.53
2019-04-06T01:34:40.379Z,61.83
2019-04-06T01:37:09.215Z,63.74
2019-04-06T01:39:38.017Z,64.47
2019-04-06T01:42:06.770Z,63.83
2019-04-06T01:44:35.617Z,63.08
2019-04-06T01:47:04.348Z,62.51
2019-04-06T01:49:33.176Z,62.32
2019-04-06T01:52:01.962Z,61.89
2019-04-06T01:54:30.777Z,61.73
2019-04-06T01:56:59.536Z,60.72
2019-04-06T01:59:28.337Z,60.83
2019-04-06T02:02:04.752Z,60.39
2019-04-06T02:04:33.657Z,59.72
2019-04-06T02:07:02.455Z,59.61
2019-04-06T02:09:31.337Z,59.44
2019-04-06T02:12:00.216Z,59.26
2019-04-06T02:14:29.032Z,58.70
2019-04-06T02:16:57.821Z,58.43
2019-04-06T02:19:26.700Z,57.87
2019-04-06T02:21:55.576Z,57.94
2019-04-06T02:24:24.504Z,58.04
2019-04-06T02:26:53.421Z,57.94
2019-04-06T02:29:22.411Z,57.92
2019-04-06T02:31:58.618Z,57.55
2019-04-06T02:34:45.427Z,57.46
2019-04-06T02:37:19.038Z,57.46
2019-04-06T02:39:52.338Z,57.13
2019-04-06T02:42:22.709Z,57.47
2019-04-06T02:44:51.621Z,58.30
2019-04-06T02:47:20.376Z,59.49
2019-04-06T02:49:49.185Z,59.64
2019-04-06T02:52:18.121Z,60.09
2019-04-06T02:54:46.977Z,59.67
2019-04-06T02:57:15.861Z,59.33
2019-04-06T02:59:44.700Z,58.45
2019-04-06T03:02:13.622Z,59.08
2019-04-06T03:04:42.701Z,61.15
2019-04-06T03:07:11.537Z,62.63
2019-04-06T03:09:40.418Z,63.02
2019-04-06T03:12:09.219Z,62.10
2019-04-06T03:14:38.456Z,61.74
2019-04-06T03:17:07.306Z,61.54
2019-04-06T03:19:36.177Z,61.14
2019-04-06T03:22:05.385Z,63.04
2019-04-06T03:24:34.460Z,63.27
2019-04-06T03:27:03.341Z,62.93
2019-04-06T03:29:32.150Z,62.69
2019-04-06T03:32:01.644Z,62.44
2019-04-06T03:34:30.539Z,61.89
2019-04-06T03:36:59.553Z,61.42
2019-04-06T03:39:28.344Z,60.75
2019-04-06T03:41:57.561Z,60.43
2019-04-06T03:44:26.422Z,59.89
2019-04-06T03:46:55.258Z,61.21
2019-04-06T03:49:24.097Z,62.13
2019-04-06T03:51:52.937Z,62.42
2019-04-06T03:54:21.888Z,62.22
2019-04-06T03:56:50.858Z,61.92
2019-04-06T03:59:19.936Z,62.02
2019-04-06T04:01:48.765Z,61.60
2019-04-06T04:04:17.619Z,61.60
2019-04-06T04:06:46.480Z,62.28
2019-04-06T04:09:15.656Z,62.66
2019-04-06T04:11:44.416Z,63.34
2019-04-06T04:14:13.255Z,63.65
2019-04-06T04:16:42.064Z,63.34
2019-04-06T04:19:10.991Z,62.99
2019-04-06T04:21:39.855Z,62.37
2019-04-06T04:24:08.618Z,62.19
2019-04-06T04:26:37.453Z,61.96
2019-04-06T04:29:06.499Z,61.66
2019-04-06T04:31:35.317Z,61.77
2019-04-06T04:34:04.179Z,61.53
2019-04-06T04:36:33.016Z,61.26
2019-04-06T04:39:02.369Z,61.65
2019-04-06T04:41:31.217Z,61.95
2019-04-06T04:44:00.057Z,62.67
2019-04-06T04:46:28.817Z,62.70
2019-04-06T04:48:57.578Z,62.68
2019-04-06T04:51:26.706Z,62.91
2019-04-06T04:53:55.496Z,62.42
2019-04-06T04:56:24.295Z,62.48
2019-04-06T04:58:53.248Z,63.03
2019-04-06T05:01:22.016Z,63.20
2019-04-06T05:03:50.857Z,63.14
2019-04-06T05:06:19.696Z,63.20
2019-04-06T05:08:48.458Z,62.96
2019-04-06T05:11:17.258Z,62.78
2019-04-06T05:13:46.096Z,62.70
2019-04-06T05:16:15.216Z,62.75
2019-04-06T05:18:44.377Z,62.25
2019-04-06T05:21:13.892Z,61.85
2019-04-06T05:23:42.695Z,61.58
2019-04-06T05:26:11.496Z,61.17
2019-04-06T05:28:40.337Z,61.58
2019-04-06T05:31:09.136Z,61.35
2019-04-06T05:33:38.151Z,61.12
2019-04-06T05:36:07.284Z,62.12
2019-04-06T05:38:36.360Z,62.77
2019-04-06T05:41:05.218Z,64.68
2019-04-06T05:43:34.146Z,64.84
2019-04-06T05:46:02.935Z,64.55
2019-04-06T05:48:31.699Z,64.54
2019-04-06T05:51:00.535Z,64.58
2019-04-06T05:53:29.300Z,63.95
2019-04-06T05:55:58.141Z,63.64
2019-04-06T05:58:27.107Z,62.31
2019-04-06T06:00:55.896Z,61.79
2019-04-06T06:03:24.655Z,61.27
2019-04-06T06:05:53.496Z,60.92
2019-04-06T06:08:22.295Z,60.88
2019-04-06T06:10:51.067Z,58.40
2019-04-06T06:13:19.896Z,58.11
2019-04-06T06:15:48.655Z,57.69
2019-04-06T06:18:25.606Z,56.99
2019-04-06T06:20:48.447Z,55.69
2019-04-06T06:23:18.838Z,55.25
2019-04-06T06:25:48.053Z,54.74
2019-04-06T06:28:19.048Z,54.31
2019-04-06T06:30:47.856Z,53.05
2019-04-06T06:33:16.939Z,52.95
2019-04-06T06:35:45.734Z,52.99
2019-04-06T06:38:14.855Z,52.75
2019-04-06T06:40:43.583Z,52.33
2019-04-06T06:43:12.455Z,52.17
2019-04-06T06:45:41.255Z,52.25
2019-04-06T06:48:10.056Z,52.25
2019-04-06T06:50:38.898Z,51.72
2019-04-06T06:53:07.611Z,51.59
2019-04-06T06:55:40.311Z,50.42
2019-04-06T06:58:09.175Z,50.07
2019-04-06T07:00:37.975Z,50.61
2019-04-06T07:03:06.819Z,50.74
2019-04-06T07:05:35.658Z,50.39
2019-04-06T07:08:04.505Z,49.73
2019-04-06T07:10:33.335Z,50.07
2019-04-06T07:13:15.424Z,48.91
2019-04-06T07:15:52.308Z,49.10
2019-04-06T07:18:22.058Z,49.25
2019-04-06T07:20:56.361Z,49.47
2019-04-06T07:23:25.496Z,49.20
2019-04-06T07:25:58.570Z,48.87
2019-04-06T07:28:36.323Z,48.60
2019-04-06T07:30:56.809Z,48.22
2019-04-06T07:33:25.616Z,48.47
2019-04-06T07:35:54.417Z,48.35
2019-04-06T07:38:23.260Z,47.72
2019-04-06T07:40:52.069Z,47.16
2019-04-06T07:43:20.817Z,46.69
2019-04-06T07:45:49.695Z,47.34
2019-04-06T07:48:18.698Z,46.87
2019-04-06T07:50:47.584Z,45.92
2019-04-06T07:53:16.417Z,46.21
2019-04-06T07:55:45.176Z,46.99
2019-04-06T07:58:13.963Z,45.94
2019-04-06T08:00:42.815Z,44.84
2019-04-06T08:03:11.575Z,45.52
2019-04-06T08:05:40.376Z,44.71
2019-04-06T08:08:09.218Z,45.20
2019-04-06T08:10:38.199Z,44.79
2019-04-06T08:13:06.975Z,44.34
2019-04-06T08:15:35.815Z,44.49
2019-04-06T08:18:04.626Z,44.53
2019-04-06T08:20:33.375Z,44.59
2019-04-06T08:23:02.218Z,44.17
2019-04-06T08:25:31.061Z,44.06
2019-04-06T08:27:59.855Z,43.82
2019-04-06T08:30:28.796Z,44.53
2019-04-06T08:32:57.626Z,42.41
2019-04-06T08:35:26.914Z,43.35
2019-04-06T08:37:55.775Z,43.42
2019-04-06T08:40:24.576Z,43.06
2019-04-06T08:42:53.384Z,42.58
2019-04-06T08:45:22.215Z,42.66
2019-04-06T08:47:51.015Z,41.47
2019-04-06T08:50:19.815Z,41.68
2019-04-06T08:52:48.655Z,41.57
2019-04-06T08:55:17.455Z,40.40
2019-04-06T08:57:46.256Z,40.71
2019-04-06T09:00:16.504Z,40.04
2019-04-06T09:02:45.375Z,40.28
2019-04-06T09:05:14.295Z,39.92
2019-04-06T09:07:43.422Z,39.59
2019-04-06T09:10:12.420Z,38.92
2019-04-06T09:12:41.225Z,39.44
2019-04-06T09:15:10.576Z,39.71
2019-04-06T09:17:39.498Z,38.74
2019-04-06T09:20:08.747Z,38.65
2019-04-06T09:22:37.626Z,38.99
2019-04-06T09:25:07.807Z,38.74
2019-04-06T09:27:36.704Z,37.83
2019-04-06T09:30:07.102Z,37.70
2019-04-06T09:32:35.935Z,38.25
2019-04-06T09:35:06.010Z,37.23
2019-04-06T09:37:41.188Z,37.41
2019-04-06T09:40:09.976Z,37.16
2019-04-06T09:42:38.788Z,36.04
2019-04-06T09:45:15.112Z,36.02
2019-04-06T09:47:46.335Z,36.36
2019-04-06T09:50:17.749Z,35.99
2019-04-06T09:52:51.159Z,35.86
2019-04-06T09:55:21.968Z,35.77
2019-04-06T09:58:08.988Z,35.58
2019-04-06T10:00:54.683Z,34.94
2019-04-06T10:03:43.495Z,35.14
2019-04-06T10:06:25.455Z,35.12
2019-04-06T10:08:58.857Z,35.24
2019-04-06T10:11:34.976Z,34.43
2019-04-06T10:14:23.859Z,34.31
2019-04-06T10:16:54.225Z,33.29
2019-04-06T10:19:39.791Z,33.24
2019-04-06T10:22:13.147Z,33.90
2019-04-06T10:24:49.573Z,35.19
2019-04-06T10:27:25.890Z,36.32
2019-04-06T10:29:56.255Z,37.63
2019-04-06T10:32:29.604Z,38.99
2019-04-06T10:35:09.281Z,40.35
2019-04-06T10:37:39.630Z,40.34
2019-04-06T10:40:12.816Z,41.04
2019-04-06T10:42:43.181Z,40.46
2019-04-06T10:45:16.498Z,39.42
2019-04-06T10:48:03.015Z,42.01
2019-04-06T10:50:36.533Z,42.42
2019-04-06T10:53:23.464Z,40.80
2019-04-06T10:55:56.944Z,40.63
2019-04-06T10:58:43.684Z,43.38
2019-04-06T11:01:19.904Z,42.89
2019-04-06T11:04:10.897Z,43.64
2019-04-06T11:06:56.977Z,42.56
2019-04-06T11:09:27.378Z,43.31
2019-04-06T11:12:00.226Z,43.13
2019-04-06T11:14:45.983Z,42.71
2019-04-06T11:17:28.416Z,43.34
2019-04-06T11:20:14.177Z,42.91
2019-04-06T11:22:44.703Z,42.57
2019-04-06T11:25:15.105Z,42.05
2019-04-06T11:27:48.336Z,42.03
2019-04-06T11:30:19.265Z,41.43
2019-04-06T11:33:05.838Z,40.19
2019-04-06T11:35:36.663Z,39.61
2019-04-06T11:38:07.102Z,38.36
2019-04-06T11:40:49.697Z,38.66
2019-04-06T11:43:35.258Z,39.59
2019-04-06T11:46:05.944Z,40.79
2019-04-06T11:48:42.219Z,39.50
2019-04-06T11:51:28.855Z,41.39
2019-04-06T11:54:05.631Z,41.46
2019-04-06T11:56:52.269Z,42.07
2019-04-06T11:59:22.898Z,43.02
2019-04-06T12:02:09.336Z,43.52
2019-04-06T12:04:45.497Z,43.42
2019-04-06T12:07:27.840Z,42.42
2019-04-06T12:10:13.407Z,42.04
2019-04-06T12:12:55.568Z,41.40
2019-04-06T12:15:36.895Z,42.64
2019-04-06T12:18:19.376Z,44.05
2019-04-06T12:21:01.943Z,45.21
2019-04-06T12:23:50.615Z,44.61
2019-04-06T12:26:26.543Z,44.44
2019-04-06T12:29:15.782Z,44.32
2019-04-06T12:32:01.655Z,44.62
2019-04-06T12:34:32.133Z,43.89
2019-04-06T12:37:19.015Z,43.06
2019-04-06T12:39:53.441Z,42.52
2019-04-06T12:42:21.644Z,40.54
2019-04-06T12:44:54.824Z,43.01
2019-04-06T12:47:41.884Z,41.53
2019-04-06T12:50:18.735Z,42.34
2019-04-06T12:52:55.335Z,42.51
2019-04-06T12:55:26.111Z,41.66
2019-04-06T12:58:13.445Z,41.83
2019-04-06T13:00:53.067Z,41.81
2019-04-06T13:03:25.896Z,41.43
2019-04-06T13:06:15.034Z,41.70
2019-04-06T13:08:45.871Z,40.85
2019-04-06T13:11:19.484Z,39.21
2019-04-06T13:13:49.387Z,38.95
2019-04-06T13:16:29.259Z,39.75
2019-04-06T13:19:03.549Z,39.00
2019-04-06T13:21:40.268Z,39.04
2019-04-06T13:24:14.948Z,39.68
2019-04-06T13:26:49.779Z,41.16
2019-04-06T13:29:21.348Z,40.38
2019-04-06T13:31:52.150Z,40.92
2019-04-06T13:34:39.370Z,40.89
2019-04-06T13:37:10.786Z,39.86
2019-04-06T13:39:58.175Z,40.18
2019-04-06T13:42:31.455Z,39.95
2019-04-06T13:45:02.628Z,40.04
2019-04-06T13:47:41.391Z,40.07
2019-04-06T13:50:21.958Z,39.47
2019-04-06T13:52:56.996Z,39.83
2019-04-06T13:55:28.240Z,39.60
2019-04-06T13:58:15.570Z,38.56
2019-04-06T14:01:13.311Z,37.90
2019-04-06T14:03:51.240Z,37.85
2019-04-06T14:06:40.046Z,37.72
2019-04-06T14:09:12.107Z,37.30
2019-04-06T14:11:58.962Z,37.56
2019-04-06T14:20:47.900Z,39.46
2019-04-06T14:23:24.150Z,40.00
2019-04-06T14:26:01.070Z,39.48
2019-04-06T14:28:35.021Z,39.22
2019-04-06T14:31:11.376Z,40.48
2019-04-06T14:33:45.152Z,40.97
2019-04-06T14:36:16.133Z,41.16
2019-04-06T14:38:47.803Z,41.28
2019-04-06T14:41:25.257Z,40.37
2019-04-06T14:44:02.269Z,40.70
2019-04-06T14:46:35.857Z,41.27
2019-04-06T14:49:28.873Z,41.30
2019-04-06T14:51:57.929Z,41.70
2019-04-06T14:54:44.392Z,42.33
2019-04-06T14:57:24.740Z,43.28
2019-04-06T14:59:55.788Z,44.92
2019-04-06T15:02:35.913Z,45.48
2019-04-06T15:05:23.940Z,46.82
2019-04-06T15:08:11.374Z,46.24
2019-04-06T15:10:45.425Z,47.64
2019-04-06T15:13:27.981Z,47.93
2019-04-06T15:16:02.068Z,48.39
2019-04-06T15:18:42.404Z,49.14
2019-04-06T15:21:28.303Z,51.44
2019-04-06T15:24:02.500Z,53.22
2019-04-06T15:26:49.721Z,54.52
2019-04-06T15:29:27.453Z,55.69
2019-04-06T15:32:04.707Z,56.92
2019-04-06T15:34:42.017Z,56.26
2019-04-06T15:37:19.298Z,55.35
2019-04-06T15:40:06.284Z,55.60
2019-04-06T15:42:37.568Z,55.55
2019-04-06T15:45:24.467Z,55.70
2019-04-06T15:47:55.505Z,55.34
2019-04-06T15:50:32.696Z,54.03
2019-04-06T15:53:03.615Z,52.73
2019-04-06T15:55:40.564Z,50.70
2019-04-06T15:58:11.758Z,50.48
2019-04-06T16:00:58.978Z,50.57
2019-04-06T16:03:41.464Z,50.75
2019-04-06T16:06:12.605Z,49.04
2019-04-06T16:08:47.256Z,48.64
2019-04-06T16:11:34.631Z,48.92
2019-04-06T16:14:22.698Z,48.00
2019-04-06T16:17:12.496Z,48.28
2019-04-06T16:19:43.415Z,48.02
2019-04-06T16:22:14.146Z,47.91
2019-04-06T16:24:51.300Z,48.68
2019-04-06T16:27:25.654Z,49.28
2019-04-06T16:30:02.698Z,49.35
2019-04-06T16:32:49.335Z,49.54
2019-04-06T16:35:35.719Z,49.25
2019-04-06T16:38:23.123Z,49.68
2019-04-06T16:41:03.627Z,49.62
2019-04-06T16:43:38.403Z,50.13
2019-04-06T16:46:21.947Z,50.67
2019-04-06T16:48:55.786Z,50.43
2019-04-06T16:51:36.556Z,50.59
2019-04-06T16:54:07.778Z,51.23
2019-04-06T16:56:41.825Z,51.42
2019-04-06T16:59:28.940Z,51.33
2019-04-06T17:02:22.060Z,50.79
2019-04-06T17:05:02.541Z,50.96
2019-04-06T17:07:36.827Z,51.39
2019-04-06T17:10:12.598Z,50.87
2019-04-06T17:12:43.655Z,50.68
2019-04-06T17:15:15.297Z,51.21
2019-04-06T17:17:46.791Z,51.54
2019-04-06T17:20:23.904Z,50.92
2019-04-06T17:22:57.736Z,50.53
2019-04-06T17:25:46.697Z,50.65
2019-04-06T17:28:34.077Z,51.20
2019-04-06T17:31:21.833Z,51.99
2019-04-06T17:33:53.195Z,52.54
2019-04-06T17:36:39.696Z,52.52
2019-04-06T17:39:28.977Z,52.64
2019-04-06T17:42:03.335Z,52.76
2019-04-06T17:44:34.867Z,52.32
2019-04-06T17:47:06.297Z,51.99
2019-04-06T17:49:40.034Z,52.33
2019-04-06T17:52:10.945Z,52.33
2019-04-06T17:54:59.007Z,52.54
2019-04-06T17:57:39.456Z,52.34
2019-04-06T18:00:27.562Z,52.41
2019-04-06T18:02:58.692Z,52.08
2019-04-06T18:05:44.938Z,52.42
2019-04-06T18:08:34.105Z,52.69
2019-04-06T18:11:11.346Z,52.79
2019-04-06T18:13:49.267Z,53.04
2019-04-06T18:16:20.874Z,52.59
2019-04-06T18:18:52.131Z,52.50
2019-04-06T18:21:21.667Z,53.17
2019-04-06T18:23:51.679Z,53.31
2019-04-06T18:26:21.858Z,53.64
2019-04-06T18:28:51.706Z,53.87
2019-04-06T18:31:23.065Z,54.46
2019-04-06T18:33:53.585Z,54.51
2019-04-06T18:36:25.373Z,55.46
2019-04-06T18:39:02.833Z,57.49
2019-04-06T18:41:32.665Z,56.82
2019-04-06T18:44:02.522Z,56.29
2019-04-06T18:46:32.797Z,56.84
2019-04-06T18:49:03.265Z,56.57
2019-04-06T18:51:32.812Z,56.88
2019-04-06T18:54:03.046Z,56.68
2019-04-06T18:56:32.867Z,56.76
2019-04-06T18:59:02.945Z,56.81
2019-04-06T19:01:32.781Z,56.92
2019-04-06T19:04:02.483Z,56.86
2019-04-06T19:06:32.602Z,56.74
2019-04-06T19:09:01.998Z,56.81
2019-04-06T19:11:31.612Z,56.56
2019-04-06T19:14:01.225Z,56.58
2019-04-06T19:16:31.189Z,56.58
2019-04-06T19:19:01.378Z,56.99
2019-04-06T19:21:32.094Z,56.98
2019-04-06T19:24:02.305Z,56.67
2019-04-06T19:26:32.234Z,56.67
2019-04-06T19:29:02.770Z,56.58
2019-04-06T19:31:32.698Z,56.61
2019-04-06T19:34:02.584Z,56.76
2019-04-06T19:36:32.084Z,56.50
2019-04-06T19:39:01.381Z,56.64
2019-04-06T19:41:31.506Z,57.01
2019-04-06T19:44:01.402Z,57.55
2019-04-06T19:46:30.948Z,57.80
2019-04-06T19:49:01.187Z,57.77
2019-04-06T19:51:30.901Z,57.63
2019-04-06T19:54:00.432Z,57.72
2019-04-06T19:56:30.386Z,57.61
2019-04-06T19:58:59.947Z,57.62
2019-04-06T20:01:29.785Z,57.84
2019-04-06T20:03:59.617Z,58.06
2019-04-06T20:06:29.708Z,58.16
2019-04-06T20:08:59.490Z,58.48
2019-04-06T20:11:29.905Z,59.94
2019-04-06T20:13:59.257Z,60.98
2019-04-06T20:16:28.655Z,61.22
2019-04-06T20:18:58.639Z,61.28
2019-04-06T20:21:29.668Z,61.54
2019-04-06T20:23:59.096Z,61.50
2019-04-06T20:26:32.237Z,61.59
2019-04-06T20:29:01.585Z,61.37
2019-04-06T20:31:30.895Z,61.00
2019-04-06T20:34:00.903Z,61.30
2019-04-06T20:36:32.356Z,61.22
2019-04-06T20:39:02.027Z,61.15
2019-04-06T20:41:32.133Z,61.45
2019-04-06T20:44:01.655Z,61.74
2019-04-06T20:46:31.892Z,61.75
2019-04-06T20:49:01.140Z,61.54
2019-04-06T20:51:31.605Z,61.49
2019-04-06T20:54:01.435Z,61.44
2019-04-06T20:56:31.526Z,61.40
2019-04-06T20:59:01.527Z,61.32
2019-04-06T21:01:31.495Z,61.93
2019-04-06T21:04:03.034Z,61.80
2019-04-06T21:06:33.434Z,61.71
2019-04-06T21:09:03.263Z,61.59
2019-04-06T21:11:32.776Z,61.30
2019-04-06T21:14:03.339Z,60.97
2019-04-06T21:16:33.164Z,61.02
2019-04-06T21:19:02.619Z,61.42
2019-04-06T21:21:32.650Z,61.43
2019-04-06T21:24:02.554Z,61.42
2019-04-06T21:26:32.525Z,61.88
2019-04-06T21:29:02.560Z,61.77
2019-04-06T21:31:32.098Z,62.17
2019-04-06T21:34:10.560Z,62.21
2019-04-06T21:36:33.443Z,62.14
2019-04-06T21:39:03.057Z,61.93
2019-04-06T21:41:32.971Z,62.11
2019-04-06T21:44:03.334Z,62.37
2019-04-06T21:46:33.644Z,62.16
2019-04-06T21:49:03.554Z,61.82
2019-04-06T21:51:33.145Z,61.56
2019-04-06T21:54:03.132Z,61.66
2019-04-06T21:56:32.835Z,61.83
2019-04-06T21:59:02.819Z,61.65
2019-04-06T22:01:33.103Z,61.36
2019-04-06T22:04:03.147Z,62.15
2019-04-06T22:06:32.688Z,62.32
2019-04-06T22:09:02.765Z,62.47
2019-04-06T22:11:33.211Z,62.63
2019-04-06T22:14:02.469Z,62.77
2019-04-06T22:16:32.552Z,62.60
2019-04-06T22:19:01.988Z,63.37
2019-04-06T22:21:32.069Z,63.24
2019-04-06T22:24:01.511Z,64.54
2019-04-06T22:26:30.899Z,65.54
2019-04-06T22:29:00.545Z,65.62
2019-04-06T22:31:30.745Z,64.82
2019-04-06T22:34:00.465Z,64.49
2019-04-06T22:36:29.855Z,64.04
2019-04-06T22:38:59.426Z,63.82
2019-04-06T22:41:28.985Z,63.61
2019-04-06T22:43:58.245Z,63.97
2019-04-06T22:46:27.924Z,64.24
2019-04-06T22:48:57.502Z,64.12
2019-04-06T22:51:27.342Z,63.58
2019-04-06T22:53:56.968Z,63.47
2019-04-06T22:56:26.375Z,63.34
2019-04-06T22:58:55.855Z,63.31
2019-04-06T23:01:26.712Z,63.43
2019-04-06T23:04:17.101Z,63.52
2019-04-06T23:06:55.152Z,63.78
2019-04-06T23:09:24.865Z,63.43
2019-04-06T23:11:54.457Z,63.42
2019-04-06T23:14:24.017Z,64.17
2019-04-06T23:16:54.060Z,64.15
2019-04-06T23:19:23.897Z,63.71
2019-04-06T23:21:53.456Z,63.41
2019-04-06T23:24:22.935Z,64.08
2019-04-06T23:26:52.987Z,63.81
2019-04-06T23:29:22.215Z,64.55
2019-04-06T23:31:52.140Z,64.12
2019-04-06T23:34:21.955Z,64.14
2019-04-06T23:36:52.214Z,65.18
2019-04-06T23:39:22.867Z,65.13
2019-04-06T23:41:52.175Z,66.38
2019-04-06T23:44:21.697Z,65.98
2019-04-06T23:46:51.182Z,68.00
2019-04-06T23:49:20.771Z,68.43
2019-04-06T23:51:50.803Z,68.59
2019-04-06T23:54:20.510Z,68.32
2019-04-06T23:56:51.250Z,68.47
2019-04-06T23:59:20.993Z,68.41
